Peotone Weather

Nearby METAR Reports

 

KIGQ - Lansing, Illinois, USA
Distance from station: NE 19mi, 30km
Updated: Sun, 24-Jun-2018 5:55am CDT
Mist, Clear
Mist, Clear
 Wind from calm
Wind: Calm
Temperature: 63°F , 17°C
Dew Point: 63°F , 17°C
Humidity: 100%
Barometer: 29.87 inHg , 1011.5 hPa
Summary: Mist
Clouds: Clear
Visibility: 4 miles , 6 km
2018/06/24 10:55 KIGQ 241055Z AUTO 00000KT 4SM BR CLR 17/17 A2987 RMK AO2 T01670167
KIKK - Kankakee, Illinois, USA
Distance from station: S 19mi, 30km
Updated: Sun, 24-Jun-2018 5:55am CDT
Clear
Clear
 Wind from WSW
Wind: WSW 6 mph , 9 km/h
Temperature: 63°F , 17°C
Dew Point: 63°F , 17°C
Humidity: 100%
Barometer: 29.89 inHg , 1012.2 hPa
Clouds: Clear
Visibility: 10 miles , 16 km
2018/06/24 10:55 KIKK 241055Z AUTO 25005KT 10SM CLR 17/17 A2989 RMK AO2 T01700166
 
KSJC - Joliet, Illinois, USA
Distance from station: WNW 24mi, 38km
Updated: Sun, 24-Jun-2018 5:53am CDT
Clear
Clear
 Wind from ESE
Wind: ESE 10 mph , 17 km/h
Temperature: 61°F , 16°C
Dew Point: 54°F , 12°C
Humidity: 77%
Barometer: 29.79 inHg , 1008.8 hPa
Clouds: Clear
Visibility: 10 miles , 16 km
2018/06/24 10:53 KSJC 241053Z AUTO 12009KT 10SM CLR 16/12 A2979 RMK AO2 SLP086 T01560122
KLOT - Romeoville, Illinois, USA
Distance from station: NW 26mi, 41km
Updated: Sun, 24-Jun-2018 5:55am CDT
Fog, Overcast
Fog, Overcast
 Wind from calm
Wind: Calm
Temperature: 63°F , 17°C
Dew Point: 63°F , 17°C
Humidity: 100%
Barometer: 29.87 inHg , 1011.5 hPa
Summary: Fog
Clouds: Overcast
Visibility: less than 1/4 mile , 0.4 km
Cloud details: Overcast 300 ft
2018/06/24 10:55 KLOT 241055Z AUTO 00000KT M1/4SM FG OVC003 17/17 A2987 RMK AO2 T01690169
 
KMDW - Midway Airport Chicago, Illinois, USA
Distance from station: N 31mi, 50km
Updated: Sun, 24-Jun-2018 5:53am CDT
Partly cloudy
Partly cloudy
 Wind from WNW
Wind: WNW 3 mph , 6 km/h
Temperature: 66°F , 19°C
Dew Point: 64°F , 18°C
Humidity: 94%
Barometer: 29.86 inHg , 1011.2 hPa
Clouds: Partly cloudy
Visibility: 10 miles , 16 km
Cloud details: Partly cloudy 14000 ft
Partly cloudy 25000 ft
2018/06/24 10:53 KMDW 241053Z 30003KT 10SM SCT140 SCT250 19/18 A2986 RMK AO2 SLP103 T01940183
KC09 - Morris, Illinois, USA
Distance from station: W 34mi, 54km
Updated: Sun, 24-Jun-2018 5:55am CDT
Mist, Clear
Mist, Clear
 Wind from W
Wind: W 3 mph , 6 km/h
Temperature: 61°F , 16°C
Dew Point: 61°F , 16°C
Humidity: 100%
Barometer: 29.87 inHg , 1011.5 hPa
Summary: Mist
Clouds: Clear
Visibility: 2 miles , 3 km
2018/06/24 10:55 KC09 241055Z AUTO 26003KT 2SM BR CLR 16/16 A2987 RMK AO2 T01620158

Metar display script from Saratoga-Weather.org